Time;durP1;ratioP1;P1;durP2;ratioP2;P2;SDS_P1;SDS_P2;PMS_P1;PMS_P2;Temp;Humidity;BMP_temperature;BMP_pressure;BME280_temperature;BME280_humidity;BME280_pressure;Samples;Min_cycle;Max_cycle;Signal;HPM_P1;HPM_P2
2023/03/05 00:00:44;;;;;;;4.68;1.13;;;3.70;99.90;;;;;;5043293;28;20043;-71
2023/03/05 00:03:09;;;;;;;6.47;1.00;;;3.40;99.90;;;;;;5067406;28;20397;-71
2023/03/05 00:05:35;;;;;;;7.47;0.88;;;3.40;99.90;;;;;;5065894;28;20037;-72
2023/03/05 00:08:01;;;;;;;10.30;1.00;;;3.40;99.90;;;;;;5045906;28;20497;-71
2023/03/05 00:10:26;;;;;;;4.90;0.80;;;3.40;99.90;;;;;;5046107;28;20037;-71
2023/03/05 00:12:52;;;;;;;9.07;0.90;;;3.40;99.90;;;;;;5059819;28;20083;-71
2023/03/05 00:15:18;;;;;;;5.97;1.23;;;3.40;99.90;;;;;;5065885;28;20040;-71
2023/03/05 00:17:47;;;;;;;7.88;0.90;;;3.40;99.90;;;;;;5041961;28;20086;-71
2023/03/05 00:20:13;;;;;;;6.97;0.85;;;3.40;99.90;;;;;;5063895;28;20055;-71
2023/03/05 00:22:38;;;;;;;5.68;0.80;;;3.40;99.90;;;;;;5065138;28;20040;-71
2023/03/05 00:25:05;;;;;;;7.40;1.00;;;4.00;99.90;;;;;;5064440;28;20048;-71
2023/03/05 00:27:31;;;;;;;9.18;0.85;;;3.40;99.90;;;;;;5051813;28;20071;-71
2023/03/05 00:29:57;;;;;;;5.07;0.80;;;3.40;99.90;;;;;;5065132;28;20096;-72
2023/03/05 00:32:22;;;;;;;13.10;2.30;;;3.40;99.90;;;;;;5046491;28;20141;-71
2023/03/05 00:34:48;;;;;;;8.02;0.90;;;2.90;99.90;;;;;;5046609;28;20048;-71
2023/03/05 00:37:15;;;;;;;12.05;1.38;;;3.50;99.90;;;;;;5047302;28;20132;-71
2023/03/05 00:39:41;;;;;;;7.25;1.60;;;3.40;99.90;;;;;;5065903;28;20727;-71
2023/03/05 00:42:07;;;;;;;11.35;1.33;;;3.40;99.90;;;;;;5066441;28;20075;-71
2023/03/05 00:44:33;;;;;;;7.50;1.00;;;3.50;99.90;;;;;;5045955;28;20422;-71
2023/03/05 00:46:58;;;;;;;7.60;1.00;;;3.50;99.90;;;;;;5044948;28;20052;-71
2023/03/05 00:49:24;;;;;;;5.28;0.77;;;3.50;99.90;;;;;;5046882;28;20052;-71
2023/03/05 00:51:50;;;;;;;5.55;1.00;;;4.20;99.90;;;;;;5032545;28;20041;-71
2023/03/05 00:54:16;;;;;;;7.32;1.10;;;3.40;99.90;;;;;;5044440;28;20090;-71
2023/03/05 00:56:41;;;;;;;5.38;1.10;;;3.50;99.90;;;;;;5064552;28;20460;-71
2023/03/05 00:59:07;;;;;;;10.93;1.20;;;3.40;99.90;;;;;;5036234;28;20121;-71
2023/03/05 01:01:33;;;;;;;9.73;0.85;;;3.40;99.90;;;;;;5024989;28;20558;-71
2023/03/05 01:04:00;;;;;;;7.80;0.90;;;3.40;99.90;;;;;;5060516;28;20036;-71
2023/03/05 01:06:26;;;;;;;7.93;1.08;;;3.30;99.90;;;;;;5039179;28;20067;-71
2023/03/05 01:08:51;;;;;;;8.55;1.25;;;3.40;99.90;;;;;;5037403;28;20279;-71
2023/03/05 01:11:17;;;;;;;8.30;1.25;;;3.30;99.90;;;;;;5024761;28;20599;-71
2023/03/05 01:13:43;;;;;;;4.40;1.05;;;3.30;99.90;;;;;;5063725;28;20063;-71
2023/03/05 01:16:11;;;;;;;5.47;0.82;;;3.30;99.90;;;;;;5045767;28;20033;-71
2023/03/05 01:18:37;;;;;;;10.98;1.45;;;3.30;99.90;;;;;;5065620;28;20032;-71
2023/03/05 01:21:04;;;;;;;8.27;2.03;;;3.50;99.90;;;;;;5066997;28;20466;-71
2023/03/05 01:23:30;;;;;;;5.05;1.10;;;3.20;99.90;;;;;;5029207;28;20040;-71
2023/03/05 01:25:58;;;;;;;7.57;1.13;;;3.20;99.90;;;;;;5063959;28;20060;-71
2023/03/05 01:28:24;;;;;;;7.88;2.08;;;3.20;99.90;;;;;;5045058;28;20044;-71
2023/03/05 01:30:50;;;;;;;10.20;1.13;;;4.00;99.90;;;;;;5039397;28;20752;-71
2023/03/05 01:33:17;;;;;;;6.07;0.93;;;3.30;99.90;;;;;;5059007;28;20119;-71
2023/03/05 01:35:48;;;;;;;6.30;1.00;;;3.20;99.90;;;;;;5045324;28;20037;-71
2023/03/05 01:38:14;;;;;;;6.60;1.02;;;3.20;99.90;;;;;;5058735;28;20063;-71
2023/03/05 01:40:42;;;;;;;5.68;1.42;;;4.00;99.90;;;;;;5039539;28;20502;-71
2023/03/05 01:43:10;;;;;;;8.40;1.15;;;3.20;99.90;;;;;;5031801;28;20040;-71
2023/03/05 01:45:37;;;;;;;7.68;1.15;;;3.20;99.90;;;;;;5050690;28;20048;-71
2023/03/05 01:48:03;;;;;;;8.15;1.67;;;3.20;99.90;;;;;;5054549;28;20128;-71
2023/03/05 01:50:30;;;;;;;8.70;1.40;;;3.20;99.90;;;;;;5048294;28;20044;-72
2023/03/05 01:53:02;;;;;;;8.85;1.00;;;3.20;99.90;;;;;;5045742;28;20076;-71
2023/03/05 01:55:31;;;;;;;7.22;1.10;;;3.10;99.90;;;;;;5059585;28;20398;-71
2023/03/05 01:57:57;;;;;;;5.32;1.00;;;3.10;99.90;;;;;;5034649;28;20139;-71
2023/03/05 02:00:37;;;;;;;4.65;1.23;;;3.10;99.90;;;;;;5027164;28;20103;-72
2023/03/05 02:03:05;;;;;;;4.95;0.80;;;3.10;99.90;;;;;;5061953;28;20041;-70
2023/03/05 02:05:36;;;;;;;1.90;0.63;;;3.10;99.90;;;;;;5032983;28;20044;-71
2023/03/05 02:08:05;;;;;;;6.85;0.75;;;3.00;99.90;;;;;;5040097;28;20048;-72
2023/03/05 02:10:38;;;;;;;3.95;0.65;;;3.10;99.90;;;;;;5066200;28;20059;-71
2023/03/05 02:13:07;;;;;;;6.93;0.82;;;3.00;99.90;;;;;;5049655;28;20044;-71
2023/03/05 02:15:33;;;;;;;6.65;0.47;;;3.30;99.90;;;;;;5056055;28;20040;-71
2023/03/05 02:18:02;;;;;;;3.95;0.52;;;3.00;99.90;;;;;;5043843;28;20048;-70
2023/03/05 02:20:41;;;;;;;6.13;1.08;;;3.00;99.90;;;;;;5059542;28;20040;-71
2023/03/05 02:23:07;;;;;;;4.90;1.08;;;3.00;99.90;;;;;;5043713;28;20036;-71
2023/03/05 02:25:33;;;;;;;9.23;0.80;;;3.00;99.90;;;;;;5063787;28;20032;-71
2023/03/05 02:28:16;;;;;;;5.28;0.75;;;3.00;99.90;;;;;;5038185;28;20056;-71
2023/03/05 02:30:42;;;;;;;9.63;0.77;;;3.00;99.90;;;;;;5031931;28;21065;-70
2023/03/05 02:33:08;;;;;;;5.55;0.80;;;3.00;99.90;;;;;;5055132;28;20094;-71
2023/03/05 02:35:34;;;;;;;6.85;0.50;;;3.00;99.90;;;;;;5060746;28;20047;-71
2023/03/05 02:38:00;;;;;;;5.28;1.13;;;3.00;99.90;;;;;;5045413;28;20092;-71
2023/03/05 02:40:26;;;;;;;4.80;0.90;;;3.00;99.90;;;;;;5042367;28;20076;-71
2023/03/05 02:42:52;;;;;;;10.07;0.70;;;3.00;99.90;;;;;;5043879;28;20045;-71
2023/03/05 02:45:18;;;;;;;3.92;0.63;;;3.00;99.90;;;;;;5047765;28;20032;-71
2023/03/05 02:47:44;;;;;;;6.05;0.80;;;3.00;99.90;;;;;;5029194;28;20102;-71
2023/03/05 02:50:10;;;;;;;5.95;0.98;;;3.10;99.90;;;;;;5036573;28;20456;-71
2023/03/05 02:52:36;;;;;;;7.15;1.50;;;3.00;99.90;;;;;;5052019;28;20038;-71
2023/03/05 02:55:03;;;;;;;11.02;1.10;;;3.00;99.90;;;;;;5034715;28;20513;-71
2023/03/05 02:57:28;;;;;;;7.05;1.08;;;3.00;99.90;;;;;;5042756;28;20068;-71
2023/03/05 02:59:54;;;;;;;7.13;1.00;;;3.00;99.90;;;;;;5026710;28;20048;-71
2023/03/05 03:02:20;;;;;;;8.75;1.23;;;3.00;99.90;;;;;;5067511;28;20063;-71
2023/03/05 03:04:45;;;;;;;5.13;0.95;;;3.00;99.90;;;;;;5044914;28;20055;-71
2023/03/05 03:07:12;;;;;;;9.00;1.52;;;3.10;99.90;;;;;;5039552;28;20513;-71
2023/03/05 03:09:38;;;;;;;7.68;1.15;;;3.80;99.90;;;;;;5045577;28;20040;-71
2023/03/05 03:12:05;;;;;;;10.27;1.38;;;3.00;99.90;;;;;;5044604;28;20146;-72
2023/03/05 03:14:37;;;;;;;7.25;0.98;;;3.00;99.90;;;;;;5050628;28;20048;-71
2023/03/05 03:17:11;;;;;;;4.35;1.08;;;3.00;99.90;;;;;;5046894;28;20048;-71
2023/03/05 03:19:38;;;;;;;6.45;1.15;;;3.00;99.90;;;;;;5033235;28;20052;-71
2023/03/05 03:22:04;;;;;;;4.45;0.95;;;2.90;99.90;;;;;;5053370;28;20060;-71
2023/03/05 03:24:31;;;;;;;7.57;1.02;;;2.90;99.90;;;;;;5034567;28;20120;-71
2023/03/05 03:26:57;;;;;;;4.82;0.98;;;3.10;99.90;;;;;;5049459;28;20056;-70
2023/03/05 03:29:23;;;;;;;10.57;1.20;;;2.90;99.90;;;;;;5050878;28;20049;-71
2023/03/05 03:31:49;;;;;;;9.07;1.20;;;3.20;99.90;;;;;;5037307;28;20597;-71
2023/03/05 03:34:16;;;;;;;5.35;0.90;;;2.80;99.90;;;;;;5021774;28;20497;-71
2023/03/05 03:36:43;;;;;;;8.85;1.27;;;4.00;99.90;;;;;;5045259;28;20041;-72
2023/03/05 03:39:09;;;;;;;5.43;1.05;;;2.90;99.90;;;;;;5030257;28;20036;-71
2023/03/05 03:41:39;;;;;;;6.05;1.35;;;2.90;99.90;;;;;;5043538;28;20041;-71
2023/03/05 03:44:07;;;;;;;7.40;1.33;;;2.80;99.90;;;;;;5038090;28;20048;-71
2023/03/05 03:46:33;;;;;;;5.90;0.80;;;2.80;99.90;;;;;;5042590;28;20165;-71
2023/03/05 03:49:00;;;;;;;5.57;1.27;;;2.80;99.90;;;;;;5057284;28;20047;-71
2023/03/05 03:51:26;;;;;;;5.43;1.00;;;2.80;99.90;;;;;;5054480;28;20036;-71
2023/03/05 03:53:52;;;;;;;5.78;1.00;;;2.80;99.90;;;;;;5042666;28;20036;-72
2023/03/05 03:56:17;;;;;;;5.53;1.20;;;3.00;99.90;;;;;;5040618;28;20039;-72
2023/03/05 03:58:43;;;;;;;7.28;0.90;;;2.80;99.90;;;;;;5038426;28;20190;-71
2023/03/05 04:01:09;;;;;;;6.22;1.17;;;2.80;99.90;;;;;;5056462;28;20055;-71
2023/03/05 04:03:35;;;;;;;8.20;1.35;;;2.80;99.90;;;;;;5055049;28;20075;-71
2023/03/05 04:06:04;;;;;;;3.65;0.80;;;2.80;99.90;;;;;;5039475;28;20127;-71
2023/03/05 04:08:29;;;;;;;11.27;1.30;;;2.90;99.90;;;;;;5061485;28;20056;-71
2023/03/05 04:10:55;;;;;;;11.40;1.20;;;2.80;99.90;;;;;;5058573;28;20029;-71
2023/03/05 04:13:21;;;;;;;4.70;1.30;;;3.00;99.90;;;;;;5039245;28;20047;-71
2023/03/05 04:15:46;;;;;;;6.93;1.45;;;2.80;99.90;;;;;;5037928;28;20074;-71
2023/03/05 04:18:12;;;;;;;7.68;1.02;;;2.80;99.90;;;;;;5037939;28;20045;-72
2023/03/05 04:20:38;;;;;;;8.55;1.63;;;2.80;99.90;;;;;;5039796;28;20126;-71
2023/03/05 04:23:03;;;;;;;6.78;1.33;;;3.60;99.90;;;;;;5050546;28;20726;-71
2023/03/05 04:25:29;;;;;;;6.50;1.33;;;3.00;99.90;;;;;;5046114;28;20041;-71
2023/03/05 04:27:55;;;;;;;5.43;1.10;;;2.90;99.90;;;;;;5049555;28;20057;-71
2023/03/05 04:30:21;;;;;;;13.95;1.17;;;2.80;99.90;;;;;;5031611;28;20126;-71
2023/03/05 04:32:46;;;;;;;4.88;1.00;;;2.80;99.90;;;;;;5049564;28;20127;-71
2023/03/05 04:35:12;;;;;;;6.20;0.90;;;3.40;99.90;;;;;;5053444;28;20048;-72
2023/03/05 04:37:38;;;;;;;5.63;1.08;;;3.40;99.90;;;;;;5048576;28;20044;-72
2023/03/05 04:40:04;;;;;;;6.60;1.13;;;2.80;99.90;;;;;;5057455;28;20501;-72
2023/03/05 04:42:30;;;;;;;6.20;0.90;;;2.80;99.90;;;;;;5047985;28;20047;-72
2023/03/05 04:44:56;;;;;;;2.92;0.70;;;3.00;99.90;;;;;;5044840;28;20086;-71
2023/03/05 04:47:21;;;;;;;6.13;0.90;;;3.10;99.90;;;;;;5040870;28;20471;-72
2023/03/05 04:49:50;;;;;;;9.70;1.40;;;2.80;99.90;;;;;;5064817;28;20040;-71
2023/03/05 04:52:16;;;;;;;5.90;1.58;;;3.60;99.90;;;;;;5050871;28;20039;-71
2023/03/05 04:54:43;;;;;;;3.53;0.70;;;2.80;99.90;;;;;;5064015;28;20417;-72
2023/03/05 04:57:09;;;;;;;5.10;0.95;;;2.80;99.90;;;;;;5063922;28;20036;-71
2023/03/05 04:59:36;;;;;;;4.68;1.08;;;2.80;99.90;;;;;;5046579;28;20390;-71
2023/03/05 05:02:02;;;;;;;3.75;1.00;;;2.80;99.90;;;;;;5047381;28;20119;-71
2023/03/05 05:04:28;;;;;;;7.00;0.68;;;2.80;99.90;;;;;;5066282;28;20051;-71
2023/03/05 05:06:57;;;;;;;4.63;0.75;;;2.80;99.90;;;;;;5045442;28;20059;-71
2023/03/05 05:09:24;;;;;;;6.95;0.60;;;2.70;99.90;;;;;;5028070;28;20124;-71
2023/03/05 05:11:50;;;;;;;4.90;0.80;;;2.80;99.90;;;;;;5053173;28;20076;-71
2023/03/05 05:14:16;;;;;;;6.00;0.80;;;2.90;99.90;;;;;;5046230;28;20083;-71
2023/03/05 05:16:42;;;;;;;5.10;0.77;;;2.70;99.90;;;;;;5046851;28;20043;-71
2023/03/05 05:19:08;;;;;;;2.92;0.70;;;2.70;99.90;;;;;;5059645;28;20127;-72
2023/03/05 05:21:34;;;;;;;4.15;0.57;;;2.70;99.90;;;;;;5045188;28;20076;-71
2023/03/05 05:24:00;;;;;;;4.00;0.90;;;3.10;99.90;;;;;;5065152;28;20700;-72
2023/03/05 05:26:26;;;;;;;6.03;0.65;;;2.70;99.90;;;;;;5052232;28;20047;-72
2023/03/05 05:28:52;;;;;;;5.57;1.13;;;2.70;99.90;;;;;;5063440;28;20052;-72
2023/03/05 05:31:18;;;;;;;4.78;0.75;;;2.70;99.90;;;;;;5037497;28;20106;-72
2023/03/05 05:33:44;;;;;;;7.43;0.80;;;2.70;99.90;;;;;;5048956;28;20036;-72
2023/03/05 05:36:13;;;;;;;6.78;0.60;;;3.30;99.90;;;;;;5051717;28;20110;-71
2023/03/05 05:38:38;;;;;;;5.75;0.65;;;2.70;99.90;;;;;;5048289;28;20039;-71
2023/03/05 05:41:07;;;;;;;3.55;0.70;;;2.70;99.90;;;;;;5049649;28;20036;-72
2023/03/05 05:43:33;;;;;;;5.63;0.70;;;2.70;99.90;;;;;;5034207;28;20050;-71
2023/03/05 05:46:02;;;;;;;4.53;1.33;;;2.60;99.90;;;;;;5049298;28;20070;-71
2023/03/05 05:48:30;;;;;;;6.93;0.90;;;2.60;99.90;;;;;;5047370;28;20051;-71
2023/03/05 05:50:56;;;;;;;5.47;1.35;;;2.60;99.90;;;;;;5043091;28;20474;-71
2023/03/05 05:53:22;;;;;;;5.85;1.13;;;2.60;99.90;;;;;;5065954;28;20039;-71
2023/03/05 05:55:48;;;;;;;5.18;1.00;;;2.60;99.90;;;;;;5042367;28;20037;-72
2023/03/05 05:58:14;;;;;;;6.07;1.10;;;2.60;99.90;;;;;;5042387;28;20051;-72
2023/03/05 06:00:40;;;;;;;7.28;1.35;;;2.80;99.90;;;;;;5056355;28;20032;-71
2023/03/05 06:03:06;;;;;;;4.03;0.80;;;2.50;99.90;;;;;;5028898;28;20090;-71
2023/03/05 06:05:33;;;;;;;6.78;1.00;;;3.10;99.90;;;;;;5039166;28;20044;-71
2023/03/05 06:07:59;;;;;;;5.90;0.60;;;2.50;99.90;;;;;;5042454;28;20044;-72
2023/03/05 06:10:24;;;;;;;5.65;0.85;;;2.50;99.90;;;;;;5055234;28;20032;-71
2023/03/05 06:12:50;;;;;;;7.00;1.00;;;2.40;99.90;;;;;;5042268;28;20036;-72
2023/03/05 06:15:17;;;;;;;4.90;1.00;;;3.40;99.90;;;;;;5049240;28;20070;-72
2023/03/05 06:17:43;;;;;;;4.85;0.75;;;2.40;99.90;;;;;;5050881;28;20076;-72
2023/03/05 06:20:09;;;;;;;6.85;0.95;;;2.60;99.90;;;;;;5037413;28;20128;-72
2023/03/05 06:22:36;;;;;;;4.53;0.98;;;2.50;99.90;;;;;;5029864;28;20055;-72
2023/03/05 06:25:03;;;;;;;6.07;1.02;;;2.40;99.90;;;;;;5009075;28;20044;-72
2023/03/05 06:27:29;;;;;;;7.55;1.17;;;2.40;99.90;;;;;;5006868;28;20562;-72
2023/03/05 06:29:55;;;;;;;8.02;1.10;;;2.40;99.90;;;;;;5042640;28;20049;-71
2023/03/05 06:32:21;;;;;;;5.60;0.88;;;2.40;99.90;;;;;;5033761;28;20413;-72
2023/03/05 06:34:48;;;;;;;6.28;0.80;;;2.40;99.90;;;;;;5046321;28;20044;-72
2023/03/05 06:37:14;;;;;;;8.18;1.40;;;2.70;99.90;;;;;;5013887;28;20055;-72
2023/03/05 06:39:39;;;;;;;4.72;0.85;;;2.40;99.90;;;;;;5031716;28;20454;-71
2023/03/05 06:42:05;;;;;;;10.00;1.20;;;2.40;99.90;;;;;;5017342;28;20481;-72
2023/03/05 06:44:36;;;;;;;7.50;1.10;;;2.40;99.90;;;;;;5027869;28;20110;-73
2023/03/05 06:47:04;;;;;;;7.78;0.98;;;2.40;99.90;;;;;;5035204;28;20063;-72
2023/03/05 06:49:30;;;;;;;6.88;1.35;;;2.40;99.90;;;;;;5036297;28;20040;-73
2023/03/05 06:51:55;;;;;;;8.32;2.28;;;2.40;99.90;;;;;;5042842;28;20075;-73
2023/03/05 06:54:21;;;;;;;3.40;0.77;;;2.40;99.90;;;;;;5056250;28;20044;-72
2023/03/05 06:56:47;;;;;;;6.55;1.10;;;2.40;99.90;;;;;;5061443;28;20044;-73
2023/03/05 06:59:15;;;;;;;8.75;1.35;;;2.40;99.90;;;;;;5070269;28;20145;-72
2023/03/05 07:01:41;;;;;;;7.53;1.52;;;2.90;99.90;;;;;;5037863;28;20050;-72
2023/03/05 07:04:07;;;;;;;5.57;1.10;;;2.40;99.90;;;;;;5030876;28;20064;-72
2023/03/05 07:06:37;;;;;;;8.00;1.23;;;2.40;99.90;;;;;;5017961;28;20044;-72
2023/03/05 07:09:04;;;;;;;11.38;1.38;;;3.00;99.90;;;;;;5060061;28;20037;-72
2023/03/05 07:11:31;;;;;;;10.55;1.58;;;2.40;99.90;;;;;;5016775;28;20040;-72
2023/03/05 07:13:57;;;;;;;10.25;1.38;;;3.10;99.90;;;;;;5032793;28;20048;-72
2023/03/05 07:16:26;;;;;;;3.03;0.80;;;2.40;99.90;;;;;;5040461;28;20067;-73
2023/03/05 07:18:53;;;;;;;6.80;1.10;;;2.80;99.90;;;;;;5057074;28;20063;-72
2023/03/05 07:21:27;;;;;;;8.40;1.90;;;2.40;99.90;;;;;;5036330;28;20135;-71
2023/03/05 07:23:54;;;;;;;8.02;2.15;;;2.50;99.90;;;;;;5035702;28;20106;-72
2023/03/05 07:26:20;;;;;;;9.57;1.90;;;2.50;99.90;;;;;;5039260;28;20040;-71
2023/03/05 07:28:46;;;;;;;11.30;2.45;;;2.60;99.90;;;;;;5054264;28;20052;-72
2023/03/05 07:31:15;;;;;;;7.82;2.55;;;2.60;99.90;;;;;;5018727;28;20045;-71
2023/03/05 07:33:41;;;;;;;10.45;2.10;;;2.60;99.90;;;;;;5025497;28;20097;-72
2023/03/05 07:36:08;;;;;;;7.72;1.70;;;2.60;99.90;;;;;;5023620;28;20040;-71
2023/03/05 07:38:34;;;;;;;11.63;1.88;;;2.70;99.90;;;;;;5010062;28;20119;-71
2023/03/05 07:41:05;;;;;;;11.48;1.98;;;2.70;99.90;;;;;;5011878;28;20090;-71
2023/03/05 07:43:31;;;;;;;12.07;1.73;;;2.80;99.90;;;;;;5041837;28;21549;-71
2023/03/05 07:45:57;;;;;;;10.73;1.95;;;2.90;99.90;;;;;;5047486;28;20041;-71
2023/03/05 07:48:23;;;;;;;8.45;1.73;;;2.80;99.90;;;;;;5041460;28;20860;-71
2023/03/05 07:50:49;;;;;;;9.50;1.30;;;2.80;99.90;;;;;;5031901;28;20156;-71
2023/03/05 07:53:15;;;;;;;10.38;1.17;;;2.90;99.90;;;;;;5030914;28;20052;-74
2023/03/05 07:55:45;;;;;;;9.32;1.50;;;2.90;99.90;;;;;;5016681;28;20044;-72
2023/03/05 07:58:12;;;;;;;4.93;1.20;;;2.90;99.90;;;;;;5021782;28;20043;-72
2023/03/05 08:00:38;;;;;;;7.13;1.30;;;3.00;99.90;;;;;;5029453;28;20445;-71
2023/03/05 08:03:04;;;;;;;12.38;1.60;;;3.00;99.90;;;;;;5047243;28;20123;-71
2023/03/05 08:05:30;;;;;;;9.23;1.67;;;3.10;99.90;;;;;;5034795;28;20041;-72
2023/03/05 08:07:56;;;;;;;10.25;1.60;;;3.20;99.90;;;;;;5048315;28;20142;-71
2023/03/05 08:10:22;;;;;;;10.38;2.05;;;3.10;99.90;;;;;;5030418;28;20592;-71
2023/03/05 08:12:48;;;;;;;8.48;1.50;;;3.20;99.90;;;;;;5051854;28;20049;-72
2023/03/05 08:15:13;;;;;;;7.80;1.52;;;3.30;99.90;;;;;;5011510;28;20118;-71
2023/03/05 08:17:39;;;;;;;4.78;0.90;;;3.80;99.90;;;;;;5016502;28;20186;-71
2023/03/05 08:20:09;;;;;;;13.93;1.63;;;3.30;99.90;;;;;;5037976;28;20037;-71
2023/03/05 08:22:36;;;;;;;5.88;1.40;;;3.30;99.90;;;;;;5037837;28;20152;-71
2023/03/05 08:25:03;;;;;;;6.55;1.00;;;3.40;99.90;;;;;;5045707;28;20436;-71
2023/03/05 08:27:28;;;;;;;9.52;1.65;;;3.40;99.90;;;;;;5043587;28;20526;-71
2023/03/05 08:29:54;;;;;;;10.00;3.33;;;3.50;99.90;;;;;;5034422;28;20063;-72
2023/03/05 08:32:20;;;;;;;8.40;1.63;;;3.60;99.90;;;;;;5045726;28;20510;-71
2023/03/05 08:34:46;;;;;;;13.00;1.50;;;3.60;99.90;;;;;;5031547;28;20055;-71
2023/03/05 08:37:11;;;;;;;5.88;1.50;;;3.70;99.90;;;;;;5046142;28;20218;-71
2023/03/05 08:39:37;;;;;;;10.75;1.58;;;3.70;99.90;;;;;;5045624;28;20056;-72
2023/03/05 08:42:03;;;;;;;10.25;1.55;;;3.80;99.90;;;;;;5030986;28;21126;-72
2023/03/05 08:44:29;;;;;;;8.35;1.20;;;3.80;99.90;;;;;;5029648;28;20553;-72
2023/03/05 08:46:55;;;;;;;12.27;2.15;;;4.10;99.90;;;;;;5019800;28;20048;-73
2023/03/05 08:49:21;;;;;;;13.95;1.40;;;4.00;99.90;;;;;;5014061;28;20040;-71
2023/03/05 08:51:47;;;;;;;9.02;1.40;;;4.10;99.90;;;;;;5047086;28;20045;-72
2023/03/05 08:54:13;;;;;;;5.22;1.20;;;4.10;99.90;;;;;;5039645;28;20035;-72
2023/03/05 08:56:39;;;;;;;12.05;1.33;;;4.30;99.90;;;;;;5039459;28;20142;-72
2023/03/05 08:59:05;;;;;;;8.43;1.17;;;4.30;99.90;;;;;;5026847;28;20094;-73
2023/03/05 09:01:31;;;;;;;5.60;1.10;;;4.40;99.90;;;;;;5034495;28;20485;-72
2023/03/05 09:04:00;;;;;;;4.78;0.90;;;4.40;99.90;;;;;;5054209;28;20047;-72
2023/03/05 09:06:26;;;;;;;6.03;0.85;;;5.10;99.90;;;;;;5057564;28;20048;-72
2023/03/05 09:08:55;;;;;;;8.07;1.50;;;4.50;99.90;;;;;;5052142;28;20051;-73
2023/03/05 09:11:22;;;;;;;5.10;0.80;;;4.60;99.90;;;;;;5040382;28;20029;-73
2023/03/05 09:13:47;;;;;;;8.85;0.90;;;4.70;99.90;;;;;;5034392;28;20041;-73
2023/03/05 09:16:15;;;;;;;7.05;1.13;;;4.80;99.90;;;;;;5037668;28;20359;-72
2023/03/05 09:18:41;;;;;;;4.63;0.90;;;4.80;99.90;;;;;;5040705;28;20663;-73
2023/03/05 09:21:11;;;;;;;5.28;1.20;;;4.80;99.90;;;;;;5022681;28;20048;-73
2023/03/05 09:23:38;;;;;;;11.05;1.83;;;4.70;99.90;;;;;;5056643;28;20109;-73
2023/03/05 09:26:06;;;;;;;6.60;0.80;;;4.80;99.90;;;;;;5040232;28;20126;-72
2023/03/05 09:28:32;;;;;;;4.97;0.77;;;4.60;99.90;;;;;;5041405;28;20064;-72
2023/03/05 09:31:04;;;;;;;6.15;0.85;;;4.50;99.90;;;;;;5040415;28;20147;-72
2023/03/05 09:33:34;;;;;;;6.15;1.25;;;4.40;99.90;;;;;;5059717;28;20056;-73
2023/03/05 09:36:04;;;;;;;5.85;0.90;;;4.30;99.90;;;;;;5038216;28;20148;-73
2023/03/05 09:38:30;;;;;;;7.53;0.90;;;4.30;99.90;;;;;;5045777;28;20119;-73
2023/03/05 09:41:13;;;;;;;5.22;0.77;;;4.40;99.90;;;;;;5043195;28;20201;-72
2023/03/05 09:44:04;;;;;;;7.10;1.00;;;4.40;99.90;;;;;;5039744;28;20047;-74
2023/03/05 09:46:48;;;;;;;11.00;1.45;;;4.70;99.90;;;;;;5041355;28;20056;-73
2023/03/05 09:49:56;;;;;;;8.32;1.10;;;4.40;99.90;;;;;;5039375;28;20123;-72
2023/03/05 09:52:44;;;;;;;4.72;0.80;;;4.40;99.90;;;;;;5010584;28;20056;-72
2023/03/05 09:55:17;;;;;;;5.45;1.27;;;4.40;99.90;;;;;;5045635;28;20452;-72
2023/03/05 09:57:50;;;;;;;4.57;0.65;;;4.40;99.90;;;;;;5058613;28;20097;-72
2023/03/05 10:00:31;;;;;;;4.50;0.80;;;4.40;99.90;;;;;;5043959;28;20241;-72
2023/03/05 10:03:02;;;;;;;6.78;0.80;;;4.50;99.90;;;;;;5039406;28;20055;-73
2023/03/05 10:05:54;;;;;;;5.35;0.80;;;4.90;99.90;;;;;;5042990;28;20071;-74
2023/03/05 10:08:24;;;;;;;6.88;0.75;;;4.60;99.90;;;;;;5023058;28;20068;-73
2023/03/05 10:10:53;;;;;;;3.20;0.60;;;4.90;99.90;;;;;;5040177;28;20041;-74
2023/03/05 10:13:51;;;;;;;6.95;0.70;;;5.00;99.90;;;;;;5038972;28;20120;-73
2023/03/05 10:16:47;;;;;;;9.00;1.50;;;5.10;99.90;;;;;;5037457;28;20056;-73
2023/03/05 10:19:40;;;;;;;4.47;0.63;;;5.20;99.90;;;;;;5037321;28;20245;-73
2023/03/05 10:22:37;;;;;;;9.52;0.88;;;5.30;99.90;;;;;;5038769;28;20048;-73
2023/03/05 10:25:28;;;;;;;8.48;0.73;;;5.40;99.90;;;;;;5042802;28;20041;-74
2023/03/05 10:28:09;;;;;;;7.47;1.08;;;5.50;99.90;;;;;;5026935;28;20050;-73
2023/03/05 10:30:44;;;;;;;5.55;0.70;;;5.50;99.90;;;;;;5022086;28;20045;-74
2023/03/05 10:33:34;;;;;;;5.68;1.38;;;5.60;99.90;;;;;;5019631;28;20403;-72
2023/03/05 10:36:25;;;;;;;7.15;0.77;;;5.70;99.90;;;;;;4985994;28;20068;-72
2023/03/05 10:39:12;;;;;;;6.40;0.90;;;5.80;99.90;;;;;;4999706;28;20061;-72
2023/03/05 10:42:07;;;;;;;5.93;0.60;;;5.70;99.90;;;;;;5017208;28;20497;-72
2023/03/05 10:44:40;;;;;;;4.53;1.00;;;5.80;99.90;;;;;;5006623;28;20049;-72
2023/03/05 10:47:21;;;;;;;11.85;1.08;;;5.80;99.90;;;;;;5018168;28;20668;-72
2023/03/05 10:49:57;;;;;;;3.63;0.70;;;5.80;99.90;;;;;;5016436;28;20042;-73
2023/03/05 10:52:29;;;;;;;6.20;0.80;;;5.90;99.90;;;;;;5014736;28;20046;-72
2023/03/05 10:54:55;;;;;;;8.82;0.77;;;5.90;99.90;;;;;;5020672;28;20554;-73
2023/03/05 10:57:32;;;;;;;6.85;0.80;;;5.90;99.90;;;;;;5016774;28;20103;-73
2023/03/05 11:00:22;;;;;;;4.70;0.75;;;5.90;99.90;;;;;;5015768;28;20076;-73
2023/03/05 11:03:03;;;;;;;5.55;0.93;;;5.90;99.90;;;;;;5016458;28;20391;-73
2023/03/05 11:05:45;;;;;;;4.72;0.90;;;5.90;99.90;;;;;;5020781;28;20037;-72
2023/03/05 11:08:31;;;;;;;6.60;0.93;;;6.00;99.90;;;;;;5015968;28;20069;-73
2023/03/05 11:11:12;;;;;;;7.90;1.15;;;6.10;99.90;;;;;;5015998;28;20041;-73
2023/03/05 11:13:50;;;;;;;4.03;0.90;;;6.20;99.90;;;;;;5021002;28;20053;-73
2023/03/05 11:16:27;;;;;;;8.93;1.35;;;6.20;99.90;;;;;;5017498;28;20124;-72
2023/03/05 11:19:18;;;;;;;9.25;1.35;;;6.10;99.90;;;;;;5016420;28;20045;-72
2023/03/05 11:21:46;;;;;;;8.27;0.80;;;6.00;99.90;;;;;;5027311;28;20163;-72
2023/03/05 11:24:14;;;;;;;10.75;0.90;;;6.00;99.90;;;;;;5019806;28;20045;-73
2023/03/05 11:26:52;;;;;;;7.60;0.93;;;5.90;99.90;;;;;;5026214;28;21664;-73
2023/03/05 11:29:21;;;;;;;7.40;0.75;;;6.00;99.90;;;;;;5020289;28;20048;-72
2023/03/05 11:31:47;;;;;;;4.25;0.60;;;6.10;99.90;;;;;;5062438;28;20067;-72
2023/03/05 11:34:16;;;;;;;6.50;0.90;;;6.20;99.90;;;;;;5021163;28;20433;-72
2023/03/05 11:36:57;;;;;;;9.57;0.98;;;6.40;99.90;;;;;;5044230;28;20401;-73
2023/03/05 11:39:24;;;;;;;5.38;0.85;;;6.40;99.90;;;;;;5039514;28;20048;-74
2023/03/05 11:42:16;;;;;;;3.50;0.85;;;6.40;99.90;;;;;;5042423;28;20053;-72
2023/03/05 11:44:48;;;;;;;3.15;0.70;;;6.50;99.90;;;;;;5039020;28;20139;-72
2023/03/05 11:47:35;;;;;;;9.65;0.90;;;6.50;99.90;;;;;;5057138;28;20132;-72
2023/03/05 11:50:26;;;;;;;7.53;0.82;;;6.50;99.90;;;;;;5035886;28;20048;-73
2023/03/05 11:53:26;;;;;;;5.30;0.90;;;6.70;99.90;;;;;;5017506;28;20701;-73
2023/03/05 11:56:04;;;;;;;5.60;0.80;;;6.40;99.90;;;;;;5012739;28;20066;-73
2023/03/05 11:59:00;;;;;;;7.93;2.00;;;6.40;99.90;;;;;;5032004;28;20048;-74
2023/03/05 12:01:30;;;;;;;5.80;0.70;;;6.50;99.90;;;;;;4964650;28;20094;-73
2023/03/05 12:03:56;;;;;;;5.47;0.80;;;6.80;99.90;;;;;;5035535;28;20056;-73
2023/03/05 12:06:41;;;;;;;6.78;0.93;;;6.60;99.90;;;;;;5054600;28;20464;-73
2023/03/05 12:09:18;;;;;;;7.00;0.90;;;6.60;99.90;;;;;;5038841;28;20036;-73
2023/03/05 12:11:46;;;;;;;3.50;0.80;;;6.60;99.90;;;;;;5040593;28;21007;-72
2023/03/05 12:14:31;;;;;;;5.45;0.90;;;6.60;99.90;;;;;;5039713;28;20055;-73
2023/03/05 12:17:09;;;;;;;9.20;1.10;;;6.50;99.90;;;;;;5057078;28;20051;-73
2023/03/05 12:19:57;;;;;;;3.10;0.65;;;6.60;99.90;;;;;;5055272;28;20048;-73
2023/03/05 12:22:26;;;;;;;5.13;0.90;;;6.50;99.90;;;;;;5054740;28;20044;-72
2023/03/05 12:24:51;;;;;;;5.93;1.00;;;6.60;99.90;;;;;;5022816;28;21015;-73
2023/03/05 12:27:34;;;;;;;5.78;1.17;;;6.40;99.90;;;;;;5050505;28;20062;-74
2023/03/05 12:30:00;;;;;;;7.38;0.88;;;6.30;99.90;;;;;;5047492;28;20056;-72
2023/03/05 12:32:32;;;;;;;5.15;0.80;;;6.80;99.90;;;;;;5054756;28;20124;-74
2023/03/05 12:35:05;;;;;;;5.53;1.13;;;6.20;99.90;;;;;;5034355;28;20045;-73
2023/03/05 12:37:31;;;;;;;3.10;0.55;;;6.20;99.90;;;;;;5036534;28;20052;-72
2023/03/05 12:40:11;;;;;;;10.13;1.08;;;6.20;99.90;;;;;;5032751;28;20052;-72
2023/03/05 12:42:37;;;;;;;7.75;1.05;;;6.20;99.90;;;;;;5049585;28;20045;-73
2023/03/05 12:45:08;;;;;;;6.28;1.05;;;6.30;99.90;;;;;;5016506;28;20460;-70
2023/03/05 12:47:35;;;;;;;6.55;1.02;;;6.40;99.90;;;;;;5033436;28;20040;-75
2023/03/05 12:50:02;;;;;;;9.65;1.13;;;6.50;99.90;;;;;;5047946;28;20438;-76
2023/03/05 12:52:32;;;;;;;5.93;0.95;;;6.50;99.90;;;;;;5031759;28;20542;-74
2023/03/05 12:55:21;;;;;;;5.97;0.93;;;6.50;99.90;;;;;;5032928;28;20401;-72
2023/03/05 12:58:10;;;;;;;6.93;1.05;;;6.40;99.90;;;;;;5034651;28;20409;-73
2023/03/05 13:00:42;;;;;;;6.53;0.95;;;6.30;99.90;;;;;;5034302;28;20111;-72
2023/03/05 13:03:15;;;;;;;5.30;1.08;;;6.40;99.90;;;;;;5036422;28;20465;-72
2023/03/05 13:05:54;;;;;;;10.93;1.25;;;6.30;99.90;;;;;;5039264;28;20048;-73
2023/03/05 13:08:25;;;;;;;5.47;1.00;;;6.20;99.90;;;;;;5036135;28;20036;-73